createdAt,value
2022-08-05T00:02:11.399Z,6.10
2022-08-05T00:04:46.348Z,6.00
2022-08-05T00:08:00.026Z,6.00
2022-08-05T00:10:27.101Z,5.70
2022-08-05T00:13:01.325Z,5.90
2022-08-05T00:15:58.012Z,6.20
2022-08-05T00:18:28.024Z,5.50
2022-08-05T00:21:01.322Z,6.00
2022-08-05T00:23:45.956Z,6.30
2022-08-05T00:26:22.556Z,6.10
2022-08-05T00:28:55.626Z,6.30
2022-08-05T00:31:53.254Z,6.90
2022-08-05T00:34:55.263Z,6.10
2022-08-05T00:37:15.338Z,6.60
2022-08-05T00:39:58.325Z,6.80
2022-08-05T00:42:37.909Z,7.00
2022-08-05T00:45:13.587Z,6.90
2022-08-05T00:47:57.128Z,7.10
2022-08-05T00:50:38.039Z,7.00
2022-08-05T00:54:00.110Z,6.60
2022-08-05T00:56:07.819Z,7.60
2022-08-05T00:58:42.491Z,7.00
2022-08-05T01:01:42.098Z,7.10
2022-08-05T01:04:13.886Z,7.60
2022-08-05T01:06:48.979Z,7.10
2022-08-05T01:09:24.984Z,7.40
2022-08-05T01:12:17.973Z,7.50
2022-08-05T01:14:56.669Z,7.20
2022-08-05T01:17:39.905Z,7.40
2022-08-05T01:20:26.974Z,7.20
2022-08-05T01:23:14.267Z,7.60
2022-08-05T01:26:08.402Z,7.20
2022-08-05T01:28:47.438Z,7.40
2022-08-05T01:31:31.081Z,7.40
2022-08-05T01:34:06.948Z,7.30
2022-08-05T01:36:47.647Z,7.10
2022-08-05T01:39:46.703Z,7.60
2022-08-05T01:42:17.646Z,7.10
2022-08-05T01:44:54.109Z,7.60
2022-08-05T01:47:38.802Z,7.60
2022-08-05T01:50:16.009Z,8.00
2022-08-05T01:52:50.686Z,7.80
2022-08-05T01:55:24.576Z,7.80
2022-08-05T01:58:09.266Z,8.00
2022-08-05T02:00:52.145Z,8.20
2022-08-05T02:03:31.911Z,8.50
2022-08-05T02:06:23.972Z,8.10
2022-08-05T02:09:03.755Z,8.20
2022-08-05T02:11:47.868Z,8.30
2022-08-05T02:14:32.251Z,8.00
2022-08-05T02:17:08.492Z,8.50
2022-08-05T02:20:03.720Z,8.20
2022-08-05T02:22:40.857Z,8.90
2022-08-05T02:25:18.418Z,8.30
2022-08-05T02:27:58.250Z,8.20
2022-08-05T02:30:37.285Z,8.40
2022-08-05T02:33:36.108Z,8.10
2022-08-05T02:36:15.642Z,8.40
2022-08-05T02:38:53.623Z,8.70
2022-08-05T02:41:42.964Z,7.90
2022-08-05T02:44:21.874Z,8.50
2022-08-05T02:47:00.379Z,8.30
2022-08-05T02:49:37.969Z,8.80
2022-08-05T02:52:29.952Z,8.60
2022-08-05T02:55:10.744Z,8.90
2022-08-05T02:58:11.378Z,9.00
2022-08-05T03:00:41.162Z,8.80
2022-08-05T03:03:20.992Z,8.80
2022-08-05T03:06:57.244Z,8.90
2022-08-05T03:08:52.165Z,9.10
2022-08-05T03:11:57.378Z,8.50
2022-08-05T03:14:17.910Z,8.90
2022-08-05T03:16:53.505Z,8.80
2022-08-05T03:19:34.579Z,8.80
2022-08-05T03:22:16.008Z,9.00
2022-08-05T03:24:53.388Z,9.50
2022-08-05T03:27:29.824Z,10.40
2022-08-05T03:30:14.004Z,10.20
2022-08-05T03:32:47.241Z,10.60
2022-08-05T03:35:20.228Z,10.40
2022-08-05T03:37:53.780Z,10.30
2022-08-05T03:40:31.805Z,10.20
2022-08-05T03:43:59.052Z,10.20
2022-08-05T03:46:00.501Z,10.00
2022-08-05T03:48:35.382Z,10.00
2022-08-05T03:52:39.331Z,9.80
2022-08-05T03:56:03.888Z,9.80
2022-08-05T03:57:16.619Z,9.40
2022-08-05T03:59:56.751Z,9.80
2022-08-05T04:02:38.344Z,9.70
2022-08-05T04:05:13.301Z,9.90
2022-08-05T04:07:58.343Z,9.70
2022-08-05T04:10:37.683Z,8.90
2022-08-05T04:13:11.540Z,9.10
2022-08-05T04:16:03.281Z,10.00
2022-08-05T04:18:38.100Z,15.70
2022-08-05T04:21:12.695Z,14.00
2022-08-05T04:24:09.121Z,13.20
2022-08-05T04:26:52.347Z,14.00
2022-08-05T04:29:25.057Z,11.60
2022-08-05T04:32:00.295Z,9.50
2022-08-05T04:34:36.621Z,10.20
2022-08-05T04:37:15.999Z,9.40
2022-08-05T04:39:52.831Z,8.20
2022-08-05T04:42:25.574Z,7.80
2022-08-05T04:44:58.931Z,7.20
2022-08-05T04:47:38.590Z,7.20
2022-08-05T04:50:15.487Z,7.30
2022-08-05T04:53:10.941Z,7.30
2022-08-05T04:56:15.147Z,7.30
2022-08-05T04:58:37.039Z,7.40
2022-08-05T05:01:10.255Z,7.30
2022-08-05T05:03:44.127Z,6.90
2022-08-05T05:06:39.694Z,7.00
2022-08-05T05:09:17.529Z,7.00
2022-08-05T05:11:55.473Z,6.70
2022-08-05T05:14:31.865Z,6.60
2022-08-05T05:17:07.346Z,6.10
2022-08-05T05:19:44.190Z,6.60
2022-08-05T05:22:23.740Z,6.70
2022-08-05T05:25:15.992Z,6.60
2022-08-05T05:27:54.042Z,6.80
2022-08-05T05:30:30.774Z,6.40
2022-08-05T05:33:16.591Z,6.50
2022-08-05T05:35:49.790Z,6.90
2022-08-05T05:38:27.490Z,6.20
2022-08-05T05:41:00.418Z,6.20
2022-08-05T05:43:56.551Z,5.90
2022-08-05T05:46:27.321Z,6.10
2022-08-05T05:49:00.099Z,6.20
2022-08-05T05:51:49.711Z,6.30
2022-08-05T05:54:22.502Z,6.50
2022-08-05T05:57:23.382Z,6.70
2022-08-05T05:59:56.192Z,6.30
2022-08-05T06:02:37.394Z,7.30
2022-08-05T06:05:16.719Z,7.00
2022-08-05T06:07:57.854Z,6.80
2022-08-05T06:10:49.110Z,6.60
2022-08-05T06:13:28.549Z,6.20
2022-08-05T06:16:38.358Z,7.00
2022-08-05T06:19:37.707Z,6.70
2022-08-05T06:26:12.620Z,7.80
2022-08-05T06:28:31.319Z,7.40
2022-08-05T06:31:11.120Z,7.40
2022-08-05T06:34:26.534Z,7.20
2022-08-05T06:40:32.381Z,6.80
2022-08-05T06:43:05.235Z,7.80
2022-08-05T06:46:06.785Z,7.40
2022-08-05T06:48:55.841Z,6.90
2022-08-05T06:51:30.765Z,7.50
2022-08-05T06:54:05.031Z,6.60
2022-08-05T06:56:37.646Z,6.90
2022-08-05T06:59:12.774Z,6.70
2022-08-05T07:01:48.052Z,6.80
2022-08-05T07:04:25.448Z,6.90
2022-08-05T07:06:58.522Z,7.10
2022-08-05T07:09:32.527Z,7.40
2022-08-05T07:12:34.658Z,7.20
2022-08-05T07:16:00.885Z,6.80
2022-08-05T07:18:30.098Z,7.10
2022-08-05T07:21:05.775Z,6.80
2022-08-05T07:23:49.126Z,6.90
2022-08-05T07:26:24.916Z,6.70
2022-08-05T07:28:59.844Z,6.90
2022-08-05T07:31:53.908Z,7.50
2022-08-05T07:34:28.537Z,7.20
2022-08-05T07:37:01.446Z,7.70
2022-08-05T07:40:26.705Z,6.60
2022-08-05T07:42:33.549Z,6.60
2022-08-05T07:45:11.949Z,6.80
2022-08-05T07:47:45.347Z,6.30
2022-08-05T07:50:18.050Z,6.80
2022-08-05T07:52:54.021Z,6.60
2022-08-05T07:56:05.831Z,6.20
2022-08-05T07:58:54.946Z,6.60
2022-08-05T08:01:14.646Z,6.00
2022-08-05T08:03:48.780Z,6.30
2022-08-05T08:06:28.249Z,6.40
2022-08-05T08:09:01.984Z,6.40
2022-08-05T08:11:47.054Z,6.10
2022-08-05T08:14:21.445Z,6.40
2022-08-05T08:16:54.295Z,6.10
2022-08-05T08:20:21.241Z,6.10
2022-08-05T08:22:20.415Z,6.00
2022-08-05T08:24:55.719Z,6.20
2022-08-05T08:27:45.246Z,5.90
2022-08-05T08:30:34.145Z,5.60
2022-08-05T08:33:14.472Z,5.70
2022-08-05T08:35:52.674Z,5.70
2022-08-05T08:38:35.718Z,5.60
2022-08-05T08:41:14.159Z,5.40
2022-08-05T08:45:20.484Z,5.70
2022-08-05T08:46:41.208Z,5.30
2022-08-05T08:50:22.915Z,5.70
2022-08-05T08:52:16.206Z,5.80
2022-08-05T08:54:48.358Z,5.30
2022-08-05T08:57:20.836Z,5.60
2022-08-05T08:59:56.121Z,5.30
2022-08-05T09:02:28.845Z,5.40
2022-08-05T09:05:17.520Z,5.20
2022-08-05T09:07:57.579Z,5.20
2022-08-05T09:10:32.730Z,5.40
2022-08-05T09:13:06.664Z,5.20
2022-08-05T09:15:41.791Z,4.90
2022-08-05T09:18:16.201Z,4.90
2022-08-05T09:20:51.560Z,4.80
2022-08-05T09:23:23.648Z,5.00
2022-08-05T09:26:11.568Z,5.10
2022-08-05T09:28:53.737Z,4.70
2022-08-05T09:32:40.147Z,4.90
2022-08-05T09:34:21.054Z,4.50
2022-08-05T09:36:59.428Z,4.40
2022-08-05T09:39:45.788Z,4.40
2022-08-05T09:42:28.107Z,4.30
2022-08-05T09:46:05.132Z,4.60
2022-08-05T09:48:02.670Z,4.40
2022-08-05T09:50:44.680Z,5.10
2022-08-05T09:53:26.117Z,4.30
2022-08-05T09:56:13.099Z,4.30
2022-08-05T09:58:59.328Z,4.60
2022-08-05T10:01:33.673Z,3.90
2022-08-05T10:04:10.488Z,4.80
2022-08-05T10:06:49.963Z,4.20
2022-08-05T10:09:30.217Z,4.30
2022-08-05T10:12:33.254Z,3.90
2022-08-05T10:15:20.018Z,4.10
2022-08-05T10:18:09.400Z,4.20
2022-08-05T10:20:47.706Z,4.80
2022-08-05T10:23:55.465Z,4.60
2022-08-05T10:26:15.502Z,4.40
2022-08-05T10:28:49.437Z,4.70
2022-08-05T10:32:54.070Z,4.20
2022-08-05T10:34:25.585Z,4.20
2022-08-05T10:37:00.801Z,4.30
2022-08-05T10:39:59.005Z,4.40
2022-08-05T10:42:33.401Z,4.20
2022-08-05T10:45:21.284Z,3.90
2022-08-05T10:48:30.176Z,4.50
2022-08-05T10:51:04.281Z,4.40
2022-08-05T10:53:38.927Z,4.30
2022-08-05T10:56:25.125Z,5.00
2022-08-05T10:59:12.484Z,4.00
2022-08-05T11:05:19.687Z,4.30
2022-08-05T11:08:03.226Z,4.10
2022-08-05T11:10:50.420Z,4.00
2022-08-05T11:13:54.784Z,3.80
2022-08-05T11:16:47.617Z,4.20
2022-08-05T11:20:10.311Z,4.00
2022-08-05T11:22:42.290Z,4.30
2022-08-05T11:26:05.068Z,4.10
2022-08-05T11:28:44.378Z,4.10
2022-08-05T11:31:57.235Z,4.00
2022-08-05T11:34:47.599Z,4.10
2022-08-05T11:38:26.164Z,3.90
2022-08-05T11:41:15.429Z,4.10
2022-08-05T11:44:06.534Z,4.30
2022-08-05T11:47:10.350Z,4.10
2022-08-05T11:49:38.322Z,3.80
2022-08-05T11:52:14.707Z,4.00
2022-08-05T11:54:56.260Z,4.40
2022-08-05T11:58:08.610Z,4.20
2022-08-05T12:00:32.672Z,3.80
2022-08-05T12:03:29.194Z,4.20
2022-08-05T12:06:09.760Z,4.20
2022-08-05T12:08:49.895Z,4.20
2022-08-05T12:11:28.398Z,4.20
2022-08-05T12:14:14.887Z,4.20
2022-08-05T12:16:50.368Z,4.20
2022-08-05T12:20:26.325Z,4.10
2022-08-05T12:22:22.284Z,4.30
2022-08-05T12:24:58.423Z,4.30
2022-08-05T12:27:33.349Z,4.10
2022-08-05T12:30:10.687Z,3.90
2022-08-05T12:32:51.161Z,4.10
2022-08-05T12:35:37.234Z,4.00
2022-08-05T12:38:13.383Z,4.50
2022-08-05T12:40:47.750Z,4.40
2022-08-05T12:43:22.965Z,4.20
2022-08-05T12:45:58.554Z,4.40
2022-08-05T12:48:41.911Z,4.40
2022-08-05T12:52:09.989Z,4.30
2022-08-05T12:54:16.945Z,4.00
2022-08-05T12:56:57.274Z,4.50
2022-08-05T13:00:09.048Z,4.30
2022-08-05T13:02:30.671Z,4.30
2022-08-05T13:05:07.206Z,4.40
2022-08-05T13:08:00.645Z,4.60
2022-08-05T13:10:35.126Z,4.50
2022-08-05T13:14:06.266Z,4.40
2022-08-05T13:16:19.899Z,4.70
2022-08-05T13:18:58.787Z,4.30
2022-08-05T13:21:38.132Z,4.30
2022-08-05T13:24:44.989Z,4.70
2022-08-05T13:27:23.023Z,4.60
2022-08-05T13:30:34.658Z,4.40
2022-08-05T13:33:03.099Z,4.20
2022-08-05T13:35:47.210Z,4.40
2022-08-05T13:38:31.076Z,4.40
2022-08-05T13:41:08.763Z,4.40
2022-08-05T13:43:45.723Z,4.00
2022-08-05T13:46:50.866Z,4.80
2022-08-05T13:49:19.898Z,4.20
2022-08-05T13:51:54.067Z,4.30
2022-08-05T13:54:26.535Z,4.40
2022-08-05T13:56:58.766Z,4.20
2022-08-05T13:59:31.909Z,4.20
2022-08-05T14:02:05.289Z,4.30
2022-08-05T14:05:00.636Z,4.60
2022-08-05T14:07:59.774Z,4.50
2022-08-05T14:10:28.640Z,4.20
2022-08-05T14:13:06.151Z,4.30
2022-08-05T14:16:07.266Z,4.30
2022-08-05T14:18:34.508Z,4.40
2022-08-05T14:22:07.883Z,4.30
2022-08-05T14:24:09.850Z,4.50
2022-08-05T14:26:56.607Z,4.60
2022-08-05T14:29:34.475Z,4.40
2022-08-05T14:32:12.291Z,4.50
2022-08-05T14:34:47.223Z,4.40
2022-08-05T14:37:19.507Z,4.30
2022-08-05T14:39:59.021Z,4.20
2022-08-05T14:42:32.275Z,4.70
2022-08-05T14:45:08.977Z,4.30
2022-08-05T14:48:02.912Z,4.20
2022-08-05T14:50:39.760Z,4.10
2022-08-05T14:53:14.358Z,4.10
2022-08-05T14:55:52.096Z,3.90
2022-08-05T14:58:26.563Z,3.80
2022-08-05T15:01:03.139Z,4.20
2022-08-05T15:03:39.045Z,3.70
2022-08-05T15:06:15.686Z,4.00
2022-08-05T15:08:59.046Z,4.20
2022-08-05T15:11:53.254Z,3.80
2022-08-05T15:14:35.601Z,3.80
2022-08-05T15:17:44.405Z,3.70
2022-08-05T15:20:18.453Z,3.90
2022-08-05T15:22:54.992Z,4.10
2022-08-05T15:25:41.010Z,3.70
2022-08-05T15:28:23.047Z,3.60
2022-08-05T15:31:03.613Z,3.60
2022-08-05T15:34:19.115Z,3.70
2022-08-05T15:36:30.879Z,3.90
2022-08-05T15:40:59.157Z,3.70
2022-08-05T15:41:59.102Z,4.60
2022-08-05T15:44:32.403Z,3.60
2022-08-05T15:47:05.614Z,3.70
2022-08-05T15:49:47.904Z,3.70
2022-08-05T15:52:52.332Z,3.80
2022-08-05T15:55:24.912Z,4.30
2022-08-05T15:58:16.452Z,3.70
2022-08-05T16:01:12.018Z,3.40
2022-08-05T16:03:44.476Z,3.90
2022-08-05T16:06:23.463Z,3.40
2022-08-05T16:08:57.304Z,3.30
2022-08-05T16:11:43.021Z,3.90
2022-08-05T16:14:17.317Z,3.90
2022-08-05T16:16:50.459Z,3.90
2022-08-05T16:20:02.746Z,4.20
2022-08-05T16:22:17.989Z,4.00
2022-08-05T16:24:59.971Z,4.10
2022-08-05T16:27:59.812Z,4.30
2022-08-05T16:30:29.146Z,3.80
2022-08-05T16:33:02.796Z,4.30
2022-08-05T16:35:42.028Z,4.40
2022-08-05T16:38:25.173Z,4.00
2022-08-05T16:41:02.627Z,4.30
2022-08-05T16:43:56.333Z,4.80
2022-08-05T16:46:29.293Z,4.30
2022-08-05T16:49:03.019Z,4.90
2022-08-05T16:51:50.369Z,4.10
2022-08-05T16:54:30.315Z,4.10
2022-08-05T16:57:14.901Z,4.00
2022-08-05T17:00:01.596Z,4.00
2022-08-05T17:02:38.437Z,4.10
2022-08-05T17:05:11.935Z,4.00
2022-08-05T17:07:53.001Z,4.50
2022-08-05T17:10:30.554Z,4.00
2022-08-05T17:13:03.860Z,4.10
2022-08-05T17:15:48.949Z,4.00
2022-08-05T17:18:26.199Z,4.10
2022-08-05T17:20:59.909Z,4.00
2022-08-05T17:24:04.877Z,4.40
2022-08-05T17:26:25.690Z,4.40
2022-08-05T17:28:58.187Z,4.60
2022-08-05T17:31:41.581Z,107.50
2022-08-05T17:34:32.029Z,35.50
2022-08-05T17:37:27.336Z,46.10
2022-08-05T17:39:59.806Z,34.80
2022-08-05T17:42:36.415Z,39.10
2022-08-05T17:45:20.910Z,34.20
2022-08-05T17:47:56.030Z,31.60
2022-08-05T17:50:30.973Z,26.40
2022-08-05T17:53:08.691Z,22.70
2022-08-05T17:55:41.934Z,22.30
2022-08-05T17:58:16.451Z,23.60
2022-08-05T18:00:55.070Z,24.10
2022-08-05T18:03:55.814Z,22.70
2022-08-05T18:06:29.505Z,23.80
2022-08-05T18:09:04.776Z,16.20
2022-08-05T18:11:42.242Z,18.00
2022-08-05T18:14:20.620Z,19.60
2022-08-05T18:16:53.604Z,17.50
2022-08-05T18:19:25.980Z,18.90
2022-08-05T18:22:08.864Z,14.10
2022-08-05T18:24:43.891Z,16.50
2022-08-05T18:27:18.872Z,11.60
2022-08-05T18:29:54.786Z,12.80
2022-08-05T18:32:28.425Z,19.60
2022-08-05T18:35:03.122Z,10.30
2022-08-05T18:37:40.352Z,10.70
2022-08-05T18:41:52.671Z,9.00
2022-08-05T18:43:09.039Z,10.30
2022-08-05T18:45:49.738Z,14.30
2022-08-05T18:48:31.585Z,10.90
2022-08-05T18:52:02.897Z,10.20
2022-08-05T18:54:15.801Z,10.80
2022-08-05T18:56:51.168Z,8.70
2022-08-05T18:59:44.143Z,9.50
2022-08-05T19:02:27.246Z,12.40
2022-08-05T19:06:05.575Z,11.50
2022-08-05T19:07:56.336Z,11.00
2022-08-05T19:10:32.310Z,11.70
2022-08-05T19:13:12.279Z,11.70
2022-08-05T19:15:58.740Z,12.10
2022-08-05T19:18:35.623Z,12.10
2022-08-05T19:21:13.100Z,11.00
2022-08-05T19:24:07.209Z,11.90
2022-08-05T19:26:55.009Z,12.10
2022-08-05T19:29:36.302Z,12.70
2022-08-05T19:32:11.718Z,12.00
2022-08-05T19:34:55.242Z,11.70
2022-08-05T19:37:35.060Z,12.50
2022-08-05T19:40:24.292Z,11.60
2022-08-05T19:43:05.409Z,11.50
2022-08-05T19:45:39.313Z,13.70
2022-08-05T19:48:27.560Z,12.20
2022-08-05T19:51:01.426Z,12.30
2022-08-05T19:54:04.707Z,12.60
2022-08-05T19:56:32.503Z,12.20
2022-08-05T19:59:53.746Z,11.20
2022-08-05T20:02:03.841Z,12.50
2022-08-05T20:04:36.938Z,12.60
2022-08-05T20:07:13.430Z,13.20
2022-08-05T20:09:54.503Z,12.90
2022-08-05T20:12:29.741Z,12.20
2022-08-05T20:15:05.802Z,12.80
2022-08-05T20:17:41.753Z,12.70
2022-08-05T20:20:16.266Z,13.20
2022-08-05T20:22:48.719Z,12.60
2022-08-05T20:25:25.992Z,13.10
2022-08-05T20:28:13.754Z,13.00
2022-08-05T20:30:49.484Z,12.70
2022-08-05T20:33:21.940Z,12.90
2022-08-05T20:35:57.557Z,13.10
2022-08-05T20:38:35.498Z,13.10
2022-08-05T20:41:08.999Z,12.90
2022-08-05T20:43:58.950Z,12.40
2022-08-05T20:46:35.851Z,12.10
2022-08-05T20:49:09.765Z,12.80
2022-08-05T20:51:44.510Z,12.50
2022-08-05T20:54:43.201Z,12.40
2022-08-05T20:57:42.661Z,12.90
2022-08-05T21:00:40.376Z,12.60
2022-08-05T21:03:11.432Z,12.60
2022-08-05T21:05:53.784Z,12.50
2022-08-05T21:08:41.785Z,13.10
2022-08-05T21:12:10.797Z,13.20
2022-08-05T21:14:08.443Z,13.30
2022-08-05T21:16:47.588Z,13.40
2022-08-05T21:19:20.252Z,13.30
2022-08-05T21:21:56.820Z,13.60
2022-08-05T21:24:29.698Z,12.70
2022-08-05T21:27:03.531Z,13.20
2022-08-05T21:29:40.679Z,13.10
2022-08-05T21:32:17.173Z,14.20
2022-08-05T21:34:56.007Z,13.00
2022-08-05T21:37:42.566Z,13.40
2022-08-05T21:40:20.560Z,12.90
2022-08-05T21:42:53.818Z,13.40
2022-08-05T21:45:51.469Z,13.60
2022-08-05T21:48:18.881Z,13.80
2022-08-05T21:50:54.379Z,14.20
2022-08-05T21:53:27.875Z,13.00
2022-08-05T21:56:09.925Z,13.30
2022-08-05T21:58:57.568Z,13.00
2022-08-05T22:01:35.493Z,13.40
2022-08-05T22:04:13.514Z,13.20
2022-08-05T22:06:50.255Z,13.30
2022-08-05T22:09:23.686Z,13.10
2022-08-05T22:12:18.105Z,13.20
2022-08-05T22:14:59.499Z,12.80
2022-08-05T22:17:32.489Z,13.30
2022-08-05T22:20:14.933Z,12.20
2022-08-05T22:23:15.887Z,12.60
2022-08-05T22:26:10.453Z,12.50
2022-08-05T22:28:44.379Z,13.10
2022-08-05T22:31:18.461Z,13.00
2022-08-05T22:33:58.342Z,12.70
2022-08-05T22:36:35.000Z,12.60
2022-08-05T22:39:12.822Z,12.80
2022-08-05T22:42:10.230Z,13.10
2022-08-05T22:44:38.442Z,12.80
2022-08-05T22:47:11.181Z,13.20
2022-08-05T22:50:19.663Z,13.30
2022-08-05T22:52:41.190Z,13.60
2022-08-05T22:55:19.512Z,13.70
2022-08-05T22:57:53.461Z,12.90
2022-08-05T23:00:26.653Z,13.90
2022-08-05T23:03:01.216Z,13.30
2022-08-05T23:05:36.769Z,12.90
2022-08-05T23:08:13.321Z,14.00
2022-08-05T23:10:46.732Z,13.60
2022-08-05T23:13:19.675Z,13.60
2022-08-05T23:15:53.672Z,13.90
2022-08-05T23:18:31.289Z,13.30
2022-08-05T23:21:05.825Z,14.20
2022-08-05T23:23:42.477Z,14.40
2022-08-05T23:26:15.610Z,13.40
2022-08-05T23:28:53.797Z,13.60
2022-08-05T23:31:26.769Z,13.90
2022-08-05T23:34:05.217Z,14.00
2022-08-05T23:36:41.513Z,13.70
2022-08-05T23:39:31.988Z,14.30
2022-08-05T23:42:14.305Z,14.10
2022-08-05T23:44:54.450Z,13.70
2022-08-05T23:47:28.436Z,13.80
2022-08-05T23:50:09.760Z,14.20
2022-08-05T23:52:49.425Z,14.20
2022-08-05T23:55:24.622Z,13.80
2022-08-05T23:58:03.950Z,13.70
